Time;durP1;ratioP1;P1;durP2;ratioP2;P2;SDS_P1;SDS_P2;PMS_P1;PMS_P2;Temp;Humidity;BMP_temperature;BMP_pressure;BME280_temperature;BME280_humidity;BME280_pressure;Samples;Min_cycle;Max_cycle;Signal;HPM_P1;HPM_P2
2022/11/13 00:02:43;;;;;;;33.20;19.12;;;;;;;2.21;90.96;99340.80;1705466;84;21523;-75
2022/11/13 00:05:28;;;;;;;31.37;18.37;;;;;;;2.19;91.05;99333.76;1705634;84;21497;-75
2022/11/13 00:08:13;;;;;;;33.63;18.12;;;;;;;2.16;91.12;99335.01;1705921;84;20971;-75
2022/11/13 00:11:09;;;;;;;46.33;22.82;;;;;;;2.13;90.97;99341.45;1705478;84;21023;-75
2022/11/13 00:13:53;;;;;;;49.38;23.25;;;;;;;2.05;91.93;99341.25;1705799;84;21035;-76
2022/11/13 00:16:38;;;;;;;52.85;23.80;;;;;;;1.97;91.01;99324.05;1689043;84;21063;-75
2022/11/13 00:19:23;;;;;;;54.93;22.17;;;;;;;1.86;92.20;99328.98;1694628;84;21046;-76
2022/11/13 00:22:08;;;;;;;52.95;23.52;;;;;;;1.82;92.06;99334.97;1693771;84;21524;-77
2022/11/13 00:24:53;;;;;;;47.23;24.37;;;;;;;1.81;91.70;99330.19;1685995;84;21035;-75
2022/11/13 00:27:38;;;;;;;44.08;23.77;;;;;;;1.84;92.14;99333.30;1705528;84;21019;-76
2022/11/13 00:30:23;;;;;;;37.48;20.45;;;;;;;1.93;92.13;99341.40;1705602;84;21015;-77
2022/11/13 00:33:08;;;;;;;35.13;19.40;;;;;;;2.03;91.83;99338.59;1709942;83;21042;-76
2022/11/13 00:35:54;;;;;;;31.05;17.65;;;;;;;2.01;91.35;99345.52;1720590;83;21042;-76
2022/11/13 00:38:39;;;;;;;32.55;17.15;;;;;;;2.02;91.43;99345.98;1702495;83;20979;-76
2022/11/13 00:41:24;;;;;;;33.00;17.95;;;;;;;2.06;91.46;99341.71;1720621;83;21011;-76
2022/11/13 00:44:09;;;;;;;32.85;19.55;;;;;;;2.05;91.37;99337.33;1701740;83;21055;-76
2022/11/13 00:46:54;;;;;;;32.35;17.75;;;;;;;2.14;91.90;99338.88;1719849;83;21404;-75
2022/11/13 00:49:39;;;;;;;33.33;18.98;;;;;;;2.16;91.35;99345.03;1706363;83;21018;-76
2022/11/13 00:52:23;;;;;;;40.15;21.68;;;;;;;2.20;92.02;99342.09;1698291;83;21452;-75
2022/11/13 00:55:08;;;;;;;43.42;22.00;;;;;;;2.26;91.82;99337.42;1700446;84;21022;-75
2022/11/13 00:57:54;;;;;;;46.80;22.20;;;;;;;2.23;91.75;99326.05;1683308;84;20998;-76
2022/11/13 01:00:42;;;;;;;41.25;22.20;;;;;;;2.23;91.37;99329.08;1700327;84;21060;-75
2022/11/13 01:03:27;;;;;;;42.03;21.60;;;;;;;2.23;91.36;99331.28;1700177;84;21438;-76
2022/11/13 01:06:20;;;;;;;47.25;22.13;;;;;;;2.20;91.17;99326.40;1681142;84;20975;-76
2022/11/13 01:09:05;;;;;;;39.78;20.85;;;;;;;2.14;91.04;99317.96;1700123;84;21030;-75
2022/11/13 01:11:50;;;;;;;39.27;20.65;;;;;;;2.09;90.85;99322.19;1700355;84;20966;-76
2022/11/13 01:14:35;;;;;;;42.60;20.75;;;;;;;2.08;91.17;99327.83;1699996;84;20999;-76
2022/11/13 01:17:20;;;;;;;41.05;20.68;;;;;;;2.06;90.74;99320.79;1695383;84;20973;-75
2022/11/13 01:20:06;;;;;;;43.90;21.37;;;;;;;2.02;91.08;99326.37;1691618;84;21139;-75
2022/11/13 01:22:51;;;;;;;36.30;20.32;;;;;;;1.97;90.89;99322.75;1671500;84;20982;-76
2022/11/13 01:25:36;;;;;;;46.50;20.43;;;;;;;1.93;90.62;99312.64;1696651;84;21091;-75
2022/11/13 01:28:21;;;;;;;40.78;21.07;;;;;;;1.93;90.57;99302.59;1693234;84;20985;-75
2022/11/13 01:31:12;;;;;;;;;;;;;;;1.90;90.45;99306.00;1693500;84;21457;-76
2022/11/13 01:33:58;;;;;;;47.73;20.20;;;;;;;1.90;90.74;99303.39;1694382;84;20100;-75
2022/11/13 01:36:43;;;;;;;58.13;21.05;;;;;;;1.90;90.97;99307.31;1688954;84;20994;-76
2022/11/13 01:39:28;;;;;;;39.45;20.43;;;;;;;1.84;90.56;99302.80;1689138;85;20994;-75
2022/11/13 01:42:13;;;;;;;39.98;19.02;;;;;;;1.81;90.68;99300.13;1670445;85;20999;-75
2022/11/13 01:45:01;;;;;;;37.98;19.07;;;;;;;1.80;90.37;99302.28;1689174;84;21334;-75
2022/11/13 01:47:46;;;;;;;38.53;20.15;;;;;;;1.81;90.31;99307.06;1688274;85;21018;-75
2022/11/13 01:50:31;;;;;;;34.53;18.07;;;;;;;1.83;90.48;99304.09;1669364;84;21026;-75
2022/11/13 01:53:16;;;;;;;33.00;18.17;;;;;;;1.81;90.41;99301.42;1689069;85;21026;-75
2022/11/13 01:56:02;;;;;;;34.27;18.67;;;;;;;1.83;90.56;99304.09;1688929;85;21046;-75
2022/11/13 01:58:54;;;;;;;34.03;18.00;;;;;;;1.87;90.62;99305.05;1689063;85;21019;-75
2022/11/13 02:01:40;;;;;;;32.90;18.07;;;;;;;1.92;90.94;99300.83;1688919;85;21437;-75
2022/11/13 02:04:26;;;;;;;35.75;18.23;;;;;;;1.95;90.92;99300.92;1671106;85;21500;-75
2022/11/13 02:07:14;;;;;;;31.35;17.00;;;;;;;1.97;91.01;99296.19;1688258;84;20978;-75
2022/11/13 02:10:00;;;;;;;31.57;17.42;;;;;;;2.00;90.81;99292.77;1673933;85;20989;-75
2022/11/13 02:12:49;;;;;;;29.80;16.65;;;;;;;2.06;91.21;99289.41;1688348;85;21622;-75
2022/11/13 02:15:34;;;;;;;32.63;16.82;;;;;;;2.09;90.98;99290.80;1688893;84;20947;-75
2022/11/13 02:18:21;;;;;;;30.48;16.12;;;;;;;2.06;91.06;99281.56;1689100;85;20966;-75
2022/11/13 02:21:36;;;;;;;36.38;17.62;;;;;;;1.93;90.66;99286.49;1688826;84;21026;-75
2022/11/13 02:24:26;;;;;;;33.75;17.42;;;;;;;1.79;90.10;99294.39;1688919;85;21026;-75
2022/11/13 02:27:31;;;;;;;37.53;17.98;;;;;;;1.74;91.05;99286.41;1688920;84;21007;-75
2022/11/13 02:30:25;;;;;;;34.95;18.12;;;;;;;1.68;90.38;99292.37;1673463;85;21011;-76
2022/11/13 02:33:27;;;;;;;56.08;19.57;;;;;;;1.60;90.64;99296.91;1689645;84;21425;-75
2022/11/13 02:36:14;;;;;;;36.17;17.85;;;;;;;1.52;90.77;99299.30;1705354;83;21007;-76
2022/11/13 02:39:03;;;;;;;34.10;18.12;;;;;;;1.47;90.94;99293.06;1709448;83;21006;-76
2022/11/13 02:41:48;;;;;;;31.20;16.27;;;;;;;1.44;91.04;99291.25;1732937;83;20997;-75
2022/11/13 02:44:33;;;;;;;37.00;16.93;;;;;;;1.40;90.27;99296.82;1705599;84;20987;-76
2022/11/13 02:47:18;;;;;;;36.77;18.57;;;;;;;1.35;91.16;99297.11;1711589;83;21448;-76
2022/11/13 02:50:05;;;;;;;39.30;17.50;;;;;;;1.36;90.85;99296.70;1730041;83;20980;-76
2022/11/13 02:52:50;;;;;;;34.13;17.27;;;;;;;1.35;91.17;99296.22;1732994;83;21040;-76
2022/11/13 02:55:35;;;;;;;30.30;15.75;;;;;;;1.29;90.83;99289.97;1687473;84;21023;-76
2022/11/13 02:58:20;;;;;;;32.17;16.90;;;;;;;1.31;90.94;99302.67;1725291;83;21064;-76
2022/11/13 03:01:05;;;;;;;45.35;16.93;;;;;;;1.29;90.44;99302.17;1705573;84;21046;-76
2022/11/13 03:03:50;;;;;;;30.15;16.65;;;;;;;1.28;91.03;99301.67;1725602;83;21063;-76
2022/11/13 03:06:35;;;;;;;32.90;16.50;;;;;;;1.30;91.21;99304.80;1705390;84;21030;-76
2022/11/13 03:09:21;;;;;;;33.18;17.62;;;;;;;1.33;91.27;99305.34;1712682;83;21430;-76
2022/11/13 03:12:09;;;;;;;38.48;17.25;;;;;;;1.33;91.43;99301.42;1729248;83;21460;-76
2022/11/13 03:14:54;;;;;;;32.55;16.32;;;;;;;1.35;91.08;99307.56;1705725;84;20999;-75
2022/11/13 03:17:39;;;;;;;34.58;16.77;;;;;;;1.35;91.62;99301.44;1706487;83;21024;-75
2022/11/13 03:20:24;;;;;;;30.32;16.35;;;;;;;1.34;91.40;99303.19;1705593;84;21031;-76
2022/11/13 03:23:09;;;;;;;32.10;15.80;;;;;;;1.33;91.46;99302.73;1725356;83;20993;-76
2022/11/13 03:25:54;;;;;;;32.40;16.57;;;;;;;1.36;91.58;99302.80;1705652;84;20971;-76
2022/11/13 03:28:39;;;;;;;30.27;16.60;;;;;;;1.37;91.94;99298.03;1725466;83;21000;-77
2022/11/13 03:31:24;;;;;;;32.45;17.07;;;;;;;1.48;92.21;99294.83;1705671;84;20988;-77
2022/11/13 03:34:10;;;;;;;33.30;17.15;;;;;;;1.53;92.33;99287.59;1724504;83;21009;-75
2022/11/13 03:36:55;;;;;;;31.52;16.87;;;;;;;1.52;91.65;99300.61;1688135;84;21027;-76
2022/11/13 03:39:39;;;;;;;;;;;;;;;1.58;92.26;99296.45;1720484;83;20957;-75
2022/11/13 03:42:24;;;;;;;32.67;15.93;;;;;;;1.57;91.56;99304.23;1677625;85;20085;-76
2022/11/13 03:45:09;;;;;;;33.38;16.62;;;;;;;1.55;91.58;99304.62;1723265;83;20997;-76
2022/11/13 03:47:54;;;;;;;37.40;18.60;;;;;;;1.50;91.18;99303.61;1677957;84;21417;-76
2022/11/13 03:50:46;;;;;;;37.45;16.50;;;;;;;1.47;91.36;99304.41;1723376;83;21415;-76
2022/11/13 03:53:31;;;;;;;36.30;17.55;;;;;;;1.38;91.34;99298.92;1706039;84;21156;-75
2022/11/13 03:56:15;;;;;;;32.93;16.90;;;;;;;1.43;91.45;99298.23;1723183;83;21537;-75
2022/11/13 03:59:00;;;;;;;28.40;17.90;;;;;;;1.41;91.38;99303.81;1688152;84;21003;-76
2022/11/13 04:01:46;;;;;;;31.50;16.50;;;;;;;1.43;91.59;99300.84;1723061;83;21035;-76
2022/11/13 04:04:31;;;;;;;38.70;15.45;;;;;;;1.47;91.81;99293.06;1705700;84;21134;-76
2022/11/13 04:07:16;;;;;;;35.85;16.60;;;;;;;1.46;91.47;99301.34;1722633;83;21036;-76
2022/11/13 04:10:03;;;;;;;30.20;15.00;;;;;;;1.45;91.43;99303.47;1685720;84;21070;-75
2022/11/13 04:12:47;;;;;;;33.05;15.85;;;;;;;1.34;90.97;99296.66;1723136;83;20993;-76
2022/11/13 04:15:33;;;;;;;33.70;16.30;;;;;;;1.34;91.23;99300.57;1705480;84;21022;-76
2022/11/13 04:18:18;;;;;;;35.08;16.65;;;;;;;1.36;91.44;99304.55;1723432;83;20989;-76
2022/11/13 04:21:05;;;;;;;33.85;16.02;;;;;;;1.36;91.32;99296.27;1687294;84;21468;-75
2022/11/13 04:23:50;;;;;;;35.25;16.17;;;;;;;1.33;90.85;99292.28;1723341;83;20977;-75
2022/11/13 04:26:34;;;;;;;32.53;15.00;;;;;;;1.30;91.16;99293.48;1705637;84;21003;-75
2022/11/13 04:29:19;;;;;;;28.12;15.93;;;;;;;1.32;91.04;99298.31;1705780;84;21405;-75
2022/11/13 04:32:05;;;;;;;37.73;16.45;;;;;;;1.29;91.61;99293.89;1705698;84;21031;-75
2022/11/13 04:34:51;;;;;;;37.03;15.58;;;;;;;1.30;91.56;99293.48;1713132;83;21054;-75
2022/11/13 04:37:36;;;;;;;33.73;17.20;;;;;;;1.29;91.10;99293.03;1720182;83;21030;-75
2022/11/13 04:40:21;;;;;;;36.53;17.25;;;;;;;1.25;90.96;99289.41;1683378;84;20997;-75
2022/11/13 04:43:06;;;;;;;31.50;16.05;;;;;;;1.26;91.97;99296.84;1700556;84;21021;-75
2022/11/13 04:45:52;;;;;;;25.52;14.40;;;;;;;1.26;92.06;99301.66;1700550;84;21017;-75
2022/11/13 04:48:37;;;;;;;27.93;14.60;;;;;;;1.25;91.90;99295.94;1680813;84;20971;-76
2022/11/13 04:51:42;;;;;;;28.70;13.95;;;;;;;1.26;91.92;99299.45;1682635;85;21131;-76
2022/11/13 04:54:26;;;;;;;26.70;13.10;;;;;;;1.16;92.45;99300.48;1670796;86;21069;-75
2022/11/13 04:57:11;;;;;;;26.87;13.85;;;;;;;1.14;92.19;99298.27;1648695;86;21032;-75
2022/11/13 04:59:56;;;;;;;25.62;13.75;;;;;;;1.14;92.37;99294.34;1666693;86;21450;-75
2022/11/13 05:02:41;;;;;;;27.70;14.05;;;;;;;1.15;92.49;99296.11;1666945;86;21462;-75
2022/11/13 05:05:26;;;;;;;28.05;14.85;;;;;;;1.18;92.52;99296.62;1666748;86;21044;-75
2022/11/13 05:08:11;;;;;;;28.95;13.32;;;;;;;1.19;92.71;99298.39;1657443;86;21032;-75
2022/11/13 05:10:56;;;;;;;25.55;14.00;;;;;;;1.22;92.67;99298.89;1650127;86;21061;-75
2022/11/13 05:13:41;;;;;;;23.98;13.15;;;;;;;1.26;92.43;99295.53;1666793;86;21438;-75
2022/11/13 05:16:26;;;;;;;;;;;;;;;1.17;92.45;99294.86;1669479;86;21462;-75
2022/11/13 05:19:10;;;;;;;24.47;13.70;;;;;;;1.17;92.86;99295.72;1667066;86;20118;-75
2022/11/13 05:21:55;;;;;;;35.28;14.90;;;;;;;1.20;92.98;99299.28;1666733;86;21734;-75
2022/11/13 05:24:40;;;;;;;35.98;14.78;;;;;;;1.23;92.75;99291.52;1667132;86;20977;-75
2022/11/13 05:27:25;;;;;;;42.58;14.05;;;;;;;1.17;92.51;99294.42;1666612;86;21043;-76
2022/11/13 05:30:10;;;;;;;36.08;14.53;;;;;;;1.06;92.28;99293.23;1650783;86;21043;-76
2022/11/13 05:32:55;;;;;;;34.55;14.00;;;;;;;0.98;91.96;99289.09;1666595;86;21045;-76
2022/11/13 05:35:40;;;;;;;50.43;14.68;;;;;;;0.97;92.27;99291.23;1666970;86;21052;-76
2022/11/13 05:38:25;;;;;;;29.48;14.90;;;;;;;0.95;92.60;99298.12;1654930;86;21064;-77
2022/11/13 05:41:14;;;;;;;34.03;15.18;;;;;;;0.91;92.28;99296.25;1666567;86;21407;-75
2022/11/13 05:43:59;;;;;;;30.20;14.25;;;;;;;0.88;93.20;99299.65;1666680;86;21037;-76
2022/11/13 05:46:44;;;;;;;28.47;14.55;;;;;;;0.86;93.04;99300.03;1666806;86;20992;-76
2022/11/13 05:49:28;;;;;;;;;;;;;;;0.90;93.14;99305.82;1669135;86;21530;-75
2022/11/13 05:52:13;;;;;;;28.33;15.17;;;;;;;0.94;92.45;99306.80;1650188;86;20315;-76
2022/11/13 05:54:58;;;;;;;28.00;14.93;;;;;;;0.96;92.58;99312.97;1666547;86;21442;-76
2022/11/13 05:57:43;;;;;;;;;;;;;;;1.01;92.57;99312.69;1669218;86;21003;-75
2022/11/13 06:00:28;;;;;;;34.47;14.77;;;;;;;1.06;92.66;99304.97;1666936;86;20324;-75
2022/11/13 06:03:12;;;;;;;38.02;16.60;;;;;;;1.09;92.69;99314.63;1666642;86;21267;-75
2022/11/13 06:05:58;;;;;;;32.70;15.23;;;;;;;1.15;93.13;99314.80;1661537;86;21009;-76
2022/11/13 06:08:44;;;;;;;34.35;16.05;;;;;;;1.22;93.07;99311.55;1663185;86;21021;-76
2022/11/13 06:11:30;;;;;;;30.65;15.65;;;;;;;1.34;92.77;99310.13;1666913;86;21053;-75
2022/11/13 06:14:15;;;;;;;35.25;14.55;;;;;;;1.38;92.09;99310.27;1649498;86;21139;-75
2022/11/13 06:17:01;;;;;;;29.32;15.13;;;;;;;1.43;92.67;99310.39;1666829;86;21525;-77
2022/11/13 06:19:47;;;;;;;29.90;15.93;;;;;;;1.48;92.72;99314.42;1666848;86;21021;-75
2022/11/13 06:22:32;;;;;;;31.60;16.37;;;;;;;1.59;93.33;99302.57;1666773;86;21017;-76
2022/11/13 06:25:17;;;;;;;28.55;14.90;;;;;;;1.73;93.46;99313.39;1666887;86;21040;-75
2022/11/13 06:28:02;;;;;;;29.07;15.28;;;;;;;1.82;93.15;99315.36;1651224;86;21053;-76
2022/11/13 06:30:47;;;;;;;28.60;13.75;;;;;;;1.80;92.42;99311.43;1666746;86;21024;-76
2022/11/13 06:33:32;;;;;;;27.60;14.93;;;;;;;1.76;92.55;99303.03;1650230;86;21478;-76
2022/11/13 06:36:25;;;;;;;31.87;14.90;;;;;;;1.70;92.69;99293.69;1662127;86;21029;-76
2022/11/13 06:39:11;;;;;;;35.68;15.32;;;;;;;1.73;93.05;99295.54;1666809;86;21141;-76
2022/11/13 06:41:55;;;;;;;28.90;15.00;;;;;;;1.82;93.33;99294.04;1631161;86;21040;-76
2022/11/13 06:44:40;;;;;;;42.98;16.15;;;;;;;1.84;92.84;99299.31;1666669;86;21411;-76
2022/11/13 06:47:27;;;;;;;34.08;16.67;;;;;;;1.86;92.56;99291.52;1666758;86;21053;-75
2022/11/13 06:50:12;;;;;;;31.17;16.50;;;;;;;1.84;92.41;99289.73;1666628;86;21060;-75
2022/11/13 06:52:57;;;;;;;50.48;18.05;;;;;;;1.88;92.49;99290.72;1666803;86;21056;-75
2022/11/13 06:55:45;;;;;;;35.80;17.10;;;;;;;1.97;92.72;99287.04;1650725;86;21426;-77
2022/11/13 06:58:30;;;;;;;36.17;17.27;;;;;;;1.94;92.74;99289.56;1666607;86;21013;-77
2022/11/13 07:01:19;;;;;;;39.15;18.25;;;;;;;1.99;93.10;99289.66;1663502;86;21120;-76
2022/11/13 07:04:06;;;;;;;40.20;18.37;;;;;;;2.03;93.08;99292.83;1649284;86;21008;-76
2022/11/13 07:06:50;;;;;;;42.88;19.75;;;;;;;2.09;93.41;99284.27;1666953;86;21017;-76
2022/11/13 07:09:35;;;;;;;47.15;20.10;;;;;;;2.18;93.25;99280.58;1666691;86;21465;-75
2022/11/13 07:12:20;;;;;;;40.30;19.25;;;;;;;2.19;93.32;99280.14;1667042;86;21445;-76
2022/11/13 07:15:05;;;;;;;45.58;21.85;;;;;;;2.22;93.25;99281.53;1666747;86;21013;-76
2022/11/13 07:17:50;;;;;;;45.45;20.97;;;;;;;2.28;92.62;99284.30;1666892;86;21076;-75
2022/11/13 07:20:37;;;;;;;86.37;27.40;;;;;;;2.29;92.88;99278.23;1652636;86;28402;-74
2022/11/13 07:23:22;;;;;;;46.23;22.52;;;;;;;2.50;92.47;99280.47;1666744;86;21036;-75
2022/11/13 07:26:07;;;;;;;39.85;20.60;;;;;;;2.49;92.32;99287.00;1648643;86;21017;-75
2022/11/13 07:28:52;;;;;;;40.60;18.73;;;;;;;2.53;92.89;99292.73;1666757;86;21414;-75
2022/11/13 07:31:37;;;;;;;52.55;21.37;;;;;;;2.59;92.73;99279.82;1641784;86;21056;-75
2022/11/13 07:34:22;;;;;;;46.85;20.02;;;;;;;2.58;92.56;99279.78;1659496;86;21024;-76
2022/11/13 07:37:07;;;;;;;50.25;22.98;;;;;;;2.63;92.49;99282.08;1667091;86;21423;-76
2022/11/13 07:39:51;;;;;;;58.38;25.75;;;;;;;2.68;92.67;99275.63;1666779;86;21037;-75
2022/11/13 07:42:37;;;;;;;47.03;22.42;;;;;;;2.73;92.53;99273.58;1667128;86;21024;-75
2022/11/13 07:45:22;;;;;;;52.88;22.60;;;;;;;2.79;93.10;99275.88;1649393;86;21415;-75
2022/11/13 07:48:06;;;;;;;49.25;22.15;;;;;;;2.86;93.15;99273.43;1667052;86;21012;-75
2022/11/13 07:50:52;;;;;;;48.90;22.65;;;;;;;2.90;92.68;99281.82;1661702;86;21021;-75
2022/11/13 07:53:37;;;;;;;41.80;21.52;;;;;;;2.83;92.32;99275.11;1634800;88;21061;-75
2022/11/13 07:56:24;;;;;;;40.83;20.40;;;;;;;2.84;92.80;99276.87;1636508;87;20965;-75
2022/11/13 07:59:09;;;;;;;47.08;20.48;;;;;;;2.92;92.76;99278.34;1636554;87;21467;-75
2022/11/13 08:01:54;;;;;;;44.63;20.40;;;;;;;2.93;92.23;99275.77;1612621;89;21537;-77
2022/11/13 08:04:39;;;;;;;47.00;20.85;;;;;;;2.92;92.35;99275.31;1623819;88;21081;-76
2022/11/13 08:07:24;;;;;;;45.48;21.15;;;;;;;2.98;92.68;99269.30;1622914;87;21008;-75
2022/11/13 08:10:09;;;;;;;57.53;25.35;;;;;;;3.03;92.74;99267.25;1623806;88;20992;-76
2022/11/13 08:13:03;;;;;;;65.22;25.10;;;;;;;3.08;92.46;99262.55;1628115;87;21004;-76
2022/11/13 08:15:48;;;;;;;58.75;26.20;;;;;;;3.07;92.06;99263.40;1623817;88;21024;-75
2022/11/13 08:18:33;;;;;;;52.88;26.27;;;;;;;3.09;91.96;99269.55;1640459;87;21008;-75
2022/11/13 08:21:20;;;;;;;51.37;22.27;;;;;;;3.08;91.76;99262.55;1610326;88;21025;-75
2022/11/13 08:24:05;;;;;;;43.95;20.72;;;;;;;3.12;91.86;99265.25;1640454;87;21016;-75
2022/11/13 08:26:51;;;;;;;42.35;21.05;;;;;;;3.10;91.82;99264.34;1623797;88;21060;-76
2022/11/13 08:29:36;;;;;;;44.25;21.65;;;;;;;3.16;92.14;99264.91;1636880;87;21481;-75
2022/11/13 08:32:21;;;;;;;48.78;22.52;;;;;;;3.15;91.46;99262.70;1623712;88;21443;-75
2022/11/13 08:35:07;;;;;;;37.30;19.12;;;;;;;3.07;91.44;99259.47;1622791;87;21068;-75
2022/11/13 08:37:52;;;;;;;40.45;19.90;;;;;;;2.98;91.29;99259.72;1623714;88;21025;-75
2022/11/13 08:40:37;;;;;;;37.03;19.92;;;;;;;3.01;91.53;99255.88;1640214;87;21454;-75
2022/11/13 08:43:22;;;;;;;37.90;18.30;;;;;;;3.07;91.56;99256.41;1612679;89;21427;-77
2022/11/13 08:46:07;;;;;;;38.70;19.07;;;;;;;3.13;91.56;99267.04;1614974;88;21077;-76
2022/11/13 08:48:52;;;;;;;39.63;19.32;;;;;;;3.25;91.66;99263.80;1624802;87;21033;-76
2022/11/13 08:51:37;;;;;;;36.77;17.85;;;;;;;3.24;91.37;99261.13;1639949;85;21037;-76
2022/11/13 08:54:22;;;;;;;40.75;19.73;;;;;;;3.32;91.63;99260.84;1670786;85;21029;-76
2022/11/13 08:57:07;;;;;;;44.55;20.90;;;;;;;3.43;92.21;99258.45;1670723;86;20989;-76
2022/11/13 08:59:52;;;;;;;47.60;20.85;;;;;;;3.56;91.53;99258.25;1670772;85;21000;-76
2022/11/13 09:02:37;;;;;;;38.70;20.60;;;;;;;3.66;91.74;99261.95;1670814;85;21442;-76
2022/11/13 09:05:23;;;;;;;49.55;21.73;;;;;;;3.73;91.43;99258.57;1671009;85;21411;-75
2022/11/13 09:08:09;;;;;;;46.92;22.02;;;;;;;3.79;91.19;99252.13;1670816;85;21422;-77
2022/11/13 09:10:54;;;;;;;50.95;22.07;;;;;;;3.84;90.78;99252.22;1650881;86;21009;-75
2022/11/13 09:13:39;;;;;;;47.53;21.70;;;;;;;3.93;91.26;99255.42;1658868;86;21458;-76
2022/11/13 09:16:24;;;;;;;45.03;21.45;;;;;;;3.91;89.38;99246.66;1671144;86;21005;-76
2022/11/13 09:19:09;;;;;;;47.23;21.30;;;;;;;3.88;89.75;99246.59;1670676;86;21032;-76
2022/11/13 09:21:54;;;;;;;46.42;21.17;;;;;;;3.88;89.93;99247.49;1670979;85;20981;-75
2022/11/13 09:24:39;;;;;;;46.70;20.82;;;;;;;3.92;90.44;99236.62;1670672;86;21435;-75
2022/11/13 09:27:23;;;;;;;40.95;19.90;;;;;;;3.99;90.23;99231.95;1671058;86;21008;-76
2022/11/13 09:30:10;;;;;;;37.90;18.25;;;;;;;4.01;89.94;99231.53;1654152;86;21009;-77
2022/11/13 09:32:57;;;;;;;42.13;17.95;;;;;;;4.03;89.85;99229.80;1670859;86;21001;-76
2022/11/13 09:35:43;;;;;;;39.92;18.98;;;;;;;4.07;89.49;99230.77;1670872;86;21017;-76
2022/11/13 09:38:30;;;;;;;50.80;18.90;;;;;;;4.05;89.40;99226.80;1652266;86;21008;-76
2022/11/13 09:41:32;;;;;;;37.85;17.50;;;;;;;4.03;89.17;99220.62;1662412;86;21065;-76
2022/11/13 09:44:26;;;;;;;40.15;18.98;;;;;;;3.92;89.14;99222.19;1670815;85;21077;-76
2022/11/13 09:47:25;;;;;;;35.30;18.20;;;;;;;3.86;89.52;99225.58;1670759;85;21024;-76
2022/11/13 09:50:26;;;;;;;32.73;16.52;;;;;;;3.91;89.33;99218.67;1670792;85;21501;-76
2022/11/13 09:53:13;;;;;;;38.70;18.25;;;;;;;3.91;89.24;99213.88;1655787;85;21506;-76
2022/11/13 09:56:21;;;;;;;38.38;19.12;;;;;;;3.97;89.51;99216.59;1664906;86;21044;-76
2022/11/13 09:59:15;;;;;;;39.95;19.80;;;;;;;4.02;89.43;99206.20;1664745;86;21028;-75
2022/11/13 10:02:23;;;;;;;37.25;20.65;;;;;;;4.12;89.74;99203.28;1665070;86;21013;-76
2022/11/13 10:05:52;;;;;;;37.53;18.05;;;;;;;4.20;89.20;99199.05;1664854;86;21013;-76
2022/11/13 10:08:54;;;;;;;41.45;20.60;;;;;;;4.21;88.87;99196.87;1665043;86;21024;-76
2022/11/13 10:11:57;;;;;;;43.60;21.52;;;;;;;4.23;89.11;99197.76;1650630;86;21028;-77
2022/11/13 10:14:46;;;;;;;47.30;24.15;;;;;;;4.24;89.16;99194.30;1662798;86;21048;-77
2022/11/13 10:17:36;;;;;;;48.68;22.98;;;;;;;4.17;88.76;99181.52;1664883;86;21586;-76
2022/11/13 10:20:42;;;;;;;44.08;22.40;;;;;;;4.22;88.92;99177.22;1658786;86;21041;-76
2022/11/13 10:23:30;;;;;;;;;;;;;;;4.27;88.93;99172.02;1661104;86;21491;-77
2022/11/13 10:26:19;;;;;;;52.70;24.43;;;;;;;4.32;88.83;99175.59;1642404;86;20106;-77
2022/11/13 10:29:14;;;;;;;49.95;25.25;;;;;;;4.32;89.05;99170.34;1658548;86;21053;-77
2022/11/13 10:32:02;;;;;;;;;;;;;;;4.34;88.50;99169.06;1646538;86;21013;-76
2022/11/13 10:35:06;;;;;;;44.05;22.67;;;;;;;4.33;88.53;99163.37;1658594;86;20098;-77
2022/11/13 10:38:25;;;;;;;34.43;19.55;;;;;;;4.39;88.89;99167.84;1658796;86;20997;-77
2022/11/13 10:41:20;;;;;;;37.78;18.77;;;;;;;4.37;88.21;99166.50;1647445;86;21073;-75
2022/11/13 10:44:19;;;;;;;36.95;20.32;;;;;;;4.28;88.83;99168.53;1659040;86;21049;-76
2022/11/13 10:47:17;;;;;;;46.68;20.77;;;;;;;4.30;88.86;99168.14;1641532;86;21388;-77
2022/11/13 10:50:12;;;;;;;47.53;21.60;;;;;;;4.40;88.77;99161.72;1658758;86;21005;-76
2022/11/13 10:52:57;;;;;;;46.00;21.68;;;;;;;4.48;88.89;99149.56;1664609;86;21088;-77
2022/11/13 10:55:44;;;;;;;45.55;22.82;;;;;;;4.55;88.99;99154.05;1665042;85;21016;-77
2022/11/13 10:58:29;;;;;;;50.23;22.65;;;;;;;4.65;88.75;99150.23;1681306;85;21008;-77
2022/11/13 11:01:22;;;;;;;49.40;22.87;;;;;;;4.68;88.23;99138.44;1681329;85;21037;-76
2022/11/13 11:04:26;;;;;;;43.15;20.90;;;;;;;4.70;88.25;99133.66;1664157;85;21020;-76
2022/11/13 11:07:21;;;;;;;39.73;19.30;;;;;;;4.78;88.54;99128.53;1681565;85;21005;-76
2022/11/13 11:10:34;;;;;;;40.20;19.50;;;;;;;4.85;88.29;99136.02;1681352;85;21450;-75
2022/11/13 11:13:23;;;;;;;36.45;18.75;;;;;;;4.89;88.23;99131.27;1602087;88;21055;-76
2022/11/13 11:16:12;;;;;;;36.23;19.00;;;;;;;4.96;88.76;99131.80;1681270;85;21012;-75
2022/11/13 11:19:02;;;;;;;34.05;18.25;;;;;;;5.03;88.62;99127.50;1681524;85;21004;-75
2022/11/13 11:21:51;;;;;;;35.58;19.48;;;;;;;5.00;88.56;99117.84;1666042;85;21019;-75
2022/11/13 11:24:45;;;;;;;35.68;18.23;;;;;;;5.10;89.33;99109.61;1665208;85;21453;-75
2022/11/13 11:27:38;;;;;;;35.83;19.30;;;;;;;5.23;89.12;99106.67;1681405;85;21063;-75
2022/11/13 11:30:27;;;;;;;35.50;18.85;;;;;;;5.31;89.29;99102.80;1668950;85;21437;-76
2022/11/13 11:33:26;;;;;;;40.20;19.60;;;;;;;5.39;88.31;99091.94;1677354;85;21115;-75
2022/11/13 11:36:41;;;;;;;40.33;20.72;;;;;;;5.40;88.44;99094.14;1675303;85;21020;-75
2022/11/13 11:39:49;;;;;;;34.45;19.98;;;;;;;5.46;88.96;99082.78;1681186;85;21053;-76
2022/11/13 11:42:49;;;;;;;40.80;20.50;;;;;;;5.54;88.62;99084.63;1670544;85;20976;-75
2022/11/13 11:45:43;;;;;;;40.65;21.45;;;;;;;5.51;88.34;99083.28;1681259;85;21000;-75
2022/11/13 11:48:33;;;;;;;43.13;23.38;;;;;;;5.53;88.64;99081.53;1681430;85;21465;-75
2022/11/13 11:51:31;;;;;;;38.58;21.00;;;;;;;5.59;88.54;99089.02;1681257;85;21016;-75
2022/11/13 11:54:42;;;;;;;40.85;20.57;;;;;;;5.61;88.45;99082.91;1668199;85;21505;-75
2022/11/13 11:58:06;;;;;;;36.38;18.70;;;;;;;5.64;88.14;99081.63;1681311;85;21052;-75
2022/11/13 12:01:05;;;;;;;32.33;17.55;;;;;;;5.62;87.84;99078.53;1673967;85;21039;-75
2022/11/13 12:04:24;;;;;;;49.93;22.95;;;;;;;5.59;88.40;99079.39;1681265;85;21016;-75
2022/11/13 12:07:50;;;;;;;47.62;22.90;;;;;;;5.59;88.20;99081.13;1681428;85;21521;-75
2022/11/13 12:10:52;;;;;;;38.85;19.42;;;;;;;5.59;88.21;99079.81;1681419;85;21141;-75
2022/11/13 12:14:10;;;;;;;36.55;19.90;;;;;;;5.57;88.26;99071.94;1681366;85;21470;-75
2022/11/13 12:17:41;;;;;;;42.55;20.17;;;;;;;5.57;88.48;99075.88;1681249;85;21482;-75
2022/11/13 12:20:57;;;;;;;39.98;19.32;;;;;;;5.50;88.77;99075.37;1681351;85;20996;-76
2022/11/13 12:24:15;;;;;;;43.40;21.85;;;;;;;5.41;88.74;99065.66;1681284;85;21008;-75
2022/11/13 12:27:21;;;;;;;37.20;20.40;;;;;;;5.43;89.27;99059.11;1617015;86;21383;-75
2022/11/13 12:30:19;;;;;;;37.78;20.50;;;;;;;5.42;89.24;99060.84;1641038;86;21009;-76
2022/11/13 12:33:27;;;;;;;41.92;22.02;;;;;;;5.44;89.86;99063.49;1664996;86;20973;-75
2022/11/13 12:36:13;;;;;;;39.05;20.95;;;;;;;5.42;89.70;99052.95;1681196;85;21051;-76
2022/11/13 12:39:43;;;;;;;41.50;20.50;;;;;;;5.45;89.80;99056.94;1681381;85;21004;-76
2022/11/13 12:42:50;;;;;;;38.60;18.90;;;;;;;5.40;90.44;99055.56;1669057;85;21048;-76
2022/11/13 12:45:58;;;;;;;38.67;21.48;;;;;;;5.43;89.69;99053.85;1666392;85;21426;-76
2022/11/13 12:48:46;;;;;;;35.15;18.65;;;;;;;5.45;89.74;99049.05;1662893;85;21016;-76
2022/11/13 12:51:39;;;;;;;34.90;17.62;;;;;;;5.47;89.55;99052.98;1681409;85;21442;-76
2022/11/13 12:54:28;;;;;;;39.00;21.07;;;;;;;5.51;89.84;99050.41;1682383;85;21188;-76
2022/11/13 12:57:21;;;;;;;31.62;17.55;;;;;;;5.52;90.00;99044.73;1652776;86;21013;-75
2022/11/13 13:00:26;;;;;;;36.42;19.65;;;;;;;5.55;89.55;99051.30;1668018;85;21501;-76
2022/11/13 13:03:29;;;;;;;41.50;20.08;;;;;;;5.56;89.88;99043.86;1678272;85;21094;-76
2022/11/13 13:06:34;;;;;;;40.95;21.35;;;;;;;5.61;89.75;99046.08;1638424;87;21495;-76
2022/11/13 13:10:08;;;;;;;38.33;19.55;;;;;;;5.63;90.15;99037.79;1650843;86;21407;-76
2022/11/13 13:13:35;;;;;;;40.67;20.80;;;;;;;5.61;90.00;99038.19;1652659;86;21020;-76